Time;durP1;ratioP1;P1;durP2;ratioP2;P2;SDS_P1;SDS_P2;PMS_P1;PMS_P2;Temp;Humidity;BMP_temperature;BMP_pressure;BME280_temperature;BME280_humidity;BME280_pressure;Samples;Min_cycle;Max_cycle;Signal;HPM_P1;HPM_P2
2021/03/31 00:01:51;;;;;;;10.68;5.47;;;;;;;7.78;63.28;99806.31;5072624;28;20050;-69
2021/03/31 00:04:16;;;;;;;10.18;4.72;;;;;;;7.74;63.66;99800.41;5073359;28;20051;-69
2021/03/31 00:06:41;;;;;;;11.63;5.43;;;;;;;7.77;64.29;99802.78;5069571;28;20036;-69
2021/03/31 00:09:07;;;;;;;9.10;5.40;;;;;;;7.59;63.37;99796.63;5071936;28;20030;-69
2021/03/31 00:11:32;;;;;;;9.60;5.63;;;;;;;7.64;64.19;99794.28;5070716;28;20067;-70
2021/03/31 00:13:58;;;;;;;11.38;4.88;;;;;;;7.53;64.38;99802.66;5072062;28;20371;-69
2021/03/31 00:16:23;;;;;;;9.30;5.10;;;;;;;7.51;64.63;99793.88;5069865;28;20060;-69
2021/03/31 00:18:50;;;;;;;10.27;4.90;;;;;;;7.61;64.23;99795.47;5067760;28;20462;-69
2021/03/31 00:21:15;;;;;;;10.35;4.68;;;;;;;7.66;63.70;99795.00;5060472;28;20048;-69
2021/03/31 00:23:40;;;;;;;8.38;4.75;;;;;;;7.73;64.03;99785.28;5068668;28;20043;-69
2021/03/31 00:26:06;;;;;;;13.55;5.53;;;;;;;7.72;63.99;99786.25;5071959;28;20029;-71
2021/03/31 00:28:31;;;;;;;11.25;5.13;;;;;;;7.58;64.03;99774.25;5068441;28;20029;-69
2021/03/31 00:30:56;;;;;;;11.18;6.15;;;;;;;7.47;64.70;99788.81;5062026;28;20105;-69
2021/03/31 00:33:22;;;;;;;13.93;6.30;;;;;;;7.35;64.85;99782.00;5071125;28;20047;-69
2021/03/31 00:35:48;;;;;;;12.93;6.50;;;;;;;7.28;65.35;99766.66;5068794;28;20040;-69
2021/03/31 00:38:13;;;;;;;8.68;5.05;;;;;;;7.25;65.48;99768.66;5053336;28;20051;-69
2021/03/31 00:40:44;;;;;;;13.38;5.72;;;;;;;7.27;64.91;99783.81;5050866;28;20090;-69
2021/03/31 00:43:09;;;;;;;11.43;6.57;;;;;;;7.12;65.35;99792.44;5062802;28;20024;-69
2021/03/31 00:45:35;;;;;;;10.68;5.20;;;;;;;6.89;65.93;99764.34;5056571;28;20046;-69
2021/03/31 00:48:01;;;;;;;12.48;5.63;;;;;;;6.92;66.17;99777.50;5067660;28;20020;-68
2021/03/31 00:50:27;;;;;;;10.88;5.63;;;;;;;6.96;65.96;99785.09;5066377;28;20024;-69
2021/03/31 00:52:54;;;;;;;10.57;4.75;;;;;;;6.79;66.40;99773.38;5064945;28;20548;-68
2021/03/31 00:55:25;;;;;;;10.02;5.20;;;;;;;6.77;66.44;99780.75;5070850;28;20021;-68
2021/03/31 00:57:52;;;;;;;12.13;3.92;;;;;;;6.69;66.65;99764.53;5054430;28;20028;-69
2021/03/31 01:00:18;;;;;;;9.50;4.90;;;;;;;6.70;67.08;99768.06;5069714;28;20108;-69
2021/03/31 01:02:43;;;;;;;8.82;4.72;;;;;;;6.64;67.54;99769.53;5071695;28;20024;-69
2021/03/31 01:05:16;;;;;;;11.23;5.57;;;;;;;6.59;67.84;99774.53;5069079;28;20032;-70
2021/03/31 01:07:41;;;;;;;11.32;5.07;;;;;;;6.51;67.91;99752.94;5072374;28;20032;-69
2021/03/31 01:10:09;;;;;;;8.43;5.10;;;;;;;6.61;68.24;99763.63;5069745;28;20025;-69
2021/03/31 01:13:00;;;;;;;7.32;4.68;;;;;;;6.73;67.47;99763.25;5070803;28;20029;-69
2021/03/31 01:15:48;;;;;;;8.95;4.10;;;;;;;6.69;67.38;99766.38;5069604;28;20028;-69
2021/03/31 01:18:23;;;;;;;10.98;4.25;;;;;;;6.58;68.21;99759.41;5064823;28;20481;-68
2021/03/31 01:20:57;;;;;;;9.43;4.38;;;;;;;6.55;68.10;99759.72;5068690;28;20521;-69
2021/03/31 01:24:00;;;;;;;9.57;4.25;;;;;;;6.50;68.99;99754.78;5070654;28;20039;-69
2021/03/31 01:26:35;;;;;;;11.50;4.40;;;;;;;6.44;68.02;99749.16;5072752;28;20478;-68
2021/03/31 01:29:31;;;;;;;9.82;4.10;;;;;;;6.30;69.06;99747.88;5072989;28;20110;-69
2021/03/31 01:32:08;;;;;;;8.05;4.20;;;;;;;6.29;69.47;99752.41;5067753;28;20036;-69
2021/03/31 01:34:40;;;;;;;12.43;4.60;;;;;;;6.39;69.02;99743.41;5072034;28;20040;-69
2021/03/31 01:37:25;;;;;;;11.75;5.55;;;;;;;6.41;69.18;99742.25;5075428;28;20025;-69
2021/03/31 01:39:53;;;;;;;10.45;4.88;;;;;;;6.26;69.03;99743.78;5067677;28;20028;-69
2021/03/31 01:42:20;;;;;;;8.85;4.95;;;;;;;5.94;69.08;99734.38;5073842;28;20404;-69
2021/03/31 01:44:49;;;;;;;9.77;4.70;;;;;;;5.81;69.86;99732.03;5071572;28;20074;-69
2021/03/31 01:47:17;;;;;;;;;;;;;;;5.89;70.62;99736.63;5073553;28;20312;-69
2021/03/31 01:49:43;;;;;;;8.75;4.32;;;;;;;5.89;70.35;99732.16;5075400;28;20352;-69
2021/03/31 01:52:10;;;;;;;10.85;5.90;;;;;;;5.76;69.77;99728.94;5071435;28;20029;-69
2021/03/31 01:54:36;;;;;;;9.63;4.80;;;;;;;5.75;70.73;99729.94;5073050;28;20056;-69
2021/03/31 01:57:03;;;;;;;10.65;5.53;;;;;;;5.72;70.56;99736.47;5056181;28;20431;-69
2021/03/31 01:59:30;;;;;;;11.05;4.68;;;;;;;5.73;70.05;99734.63;5073610;28;20107;-69
2021/03/31 02:01:58;;;;;;;10.65;5.03;;;;;;;5.65;71.36;99729.16;5071630;28;20024;-69
2021/03/31 02:04:24;;;;;;;9.32;5.05;;;;;;;5.62;71.05;99724.06;5074409;28;20058;-69
2021/03/31 02:06:51;;;;;;;9.52;4.18;;;;;;;5.58;70.96;99726.22;5056386;28;20498;-69
2021/03/31 02:09:18;;;;;;;7.18;4.15;;;;;;;5.54;70.81;99726.66;5071516;28;20029;-69
2021/03/31 02:11:44;;;;;;;6.93;3.80;;;;;;;5.47;70.02;99708.44;5073497;28;20465;-69
2021/03/31 02:14:14;;;;;;;12.95;4.63;;;;;;;5.56;70.06;99716.63;5071915;28;20028;-69
2021/03/31 02:16:41;;;;;;;;;;;;;;;5.47;69.86;99712.97;5073639;28;20048;-68
2021/03/31 02:19:07;;;;;;;8.25;4.32;;;;;;;5.30;70.69;99703.88;5072058;28;20357;-69
2021/03/31 02:21:33;;;;;;;8.90;4.25;;;;;;;5.34;71.22;99712.47;5054840;28;20044;-68
2021/03/31 02:23:59;;;;;;;7.82;4.07;;;;;;;5.30;71.53;99713.78;5075374;28;20366;-69
2021/03/31 02:26:27;;;;;;;9.75;4.38;;;;;;;5.30;70.85;99713.78;5072847;28;20036;-69
2021/03/31 02:28:53;;;;;;;7.10;4.45;;;;;;;5.24;70.67;99715.22;5071990;28;20375;-69
2021/03/31 02:31:20;;;;;;;10.07;4.95;;;;;;;5.36;71.13;99708.66;5072309;28;20024;-69
2021/03/31 02:33:48;;;;;;;8.88;4.40;;;;;;;5.30;71.65;99703.88;5074127;28;20379;-69
2021/03/31 02:36:14;;;;;;;11.13;4.40;;;;;;;5.25;71.55;99712.38;5055390;28;20158;-69
2021/03/31 02:38:42;;;;;;;9.55;4.38;;;;;;;5.09;72.14;99696.06;5105039;22;20055;-70
2021/03/31 02:41:08;;;;;;;7.18;3.83;;;;;;;5.01;71.83;99688.75;5071016;28;20377;-70
2021/03/31 02:43:41;;;;;;;9.05;4.43;;;;;;;5.04;71.22;99701.84;5073849;28;20119;-70
2021/03/31 02:46:08;;;;;;;9.55;4.55;;;;;;;4.97;71.91;99702.56;5069574;28;20040;-72
2021/03/31 02:48:35;;;;;;;7.25;4.18;;;;;;;4.92;71.70;99694.97;5054126;28;20481;-72
2021/03/31 02:51:00;;;;;;;7.30;4.30;;;;;;;4.88;72.76;99687.38;5045857;28;20029;-69
2021/03/31 02:53:27;;;;;;;6.72;4.18;;;;;;;5.01;72.76;99694.09;5049898;28;20086;-70
2021/03/31 02:55:54;;;;;;;8.15;4.88;;;;;;;5.09;73.00;99684.50;5051044;28;20036;-69
2021/03/31 02:58:19;;;;;;;7.10;4.32;;;;;;;5.10;72.26;99691.53;5051604;28;20063;-70
2021/03/31 03:00:44;;;;;;;9.43;4.40;;;;;;;5.07;71.78;99692.66;5046178;28;20473;-70
2021/03/31 03:03:10;;;;;;;7.55;4.10;;;;;;;4.91;72.54;99677.19;5053703;28;20024;-70
2021/03/31 03:05:36;;;;;;;7.38;4.20;;;;;;;4.90;72.58;99685.38;5048804;28;20025;-71
2021/03/31 03:08:03;;;;;;;10.60;3.97;;;;;;;4.81;72.13;99681.72;5050315;28;20025;-70
2021/03/31 03:10:28;;;;;;;7.20;4.35;;;;;;;4.80;73.51;99677.38;5050846;28;20059;-70
2021/03/31 03:12:57;;;;;;;10.75;4.25;;;;;;;4.93;73.13;99685.94;5040026;28;20025;-70
2021/03/31 03:15:26;;;;;;;10.85;4.28;;;;;;;5.01;73.22;99688.75;5047413;28;20455;-70
2021/03/31 03:17:52;;;;;;;9.10;4.03;;;;;;;4.93;72.84;99669.00;5046030;28;20087;-70
2021/03/31 03:20:18;;;;;;;8.38;4.43;;;;;;;4.90;72.56;99678.19;5053610;28;20025;-70
2021/03/31 03:22:46;;;;;;;6.60;3.85;;;;;;;4.98;71.91;99689.03;5048311;28;20031;-70
2021/03/31 03:25:13;;;;;;;9.68;4.38;;;;;;;4.79;71.79;99670.31;5050854;28;20024;-70
2021/03/31 03:27:43;;;;;;;8.27;4.15;;;;;;;4.63;72.99;99673.59;5052949;28;20120;-70
2021/03/31 03:30:11;;;;;;;9.38;4.80;;;;;;;4.64;73.73;99686.00;5051165;28;20032;-70
2021/03/31 03:32:40;;;;;;;8.60;4.30;;;;;;;4.83;73.19;99685.97;5047539;28;20036;-70
2021/03/31 03:35:09;;;;;;;8.00;4.53;;;;;;;5.10;72.36;99688.84;5051951;28;20053;-70
2021/03/31 03:37:34;;;;;;;8.05;4.00;;;;;;;5.07;72.20;99673.06;5051335;28;20180;-70
2021/03/31 03:40:02;;;;;;;7.03;3.80;;;;;;;5.12;72.06;99681.50;5052172;28;20088;-70
2021/03/31 03:42:27;;;;;;;8.63;4.38;;;;;;;5.08;71.77;99678.25;5048223;28;20032;-70
2021/03/31 03:44:53;;;;;;;7.35;3.97;;;;;;;5.07;71.90;99679.25;5051870;28;20105;-71
2021/03/31 03:47:20;;;;;;;10.20;4.95;;;;;;;4.86;72.11;99683.97;5052221;28;20041;-70
2021/03/31 03:49:45;;;;;;;7.57;4.40;;;;;;;4.57;72.58;99675.00;5040178;28;20270;-70
2021/03/31 03:52:11;;;;;;;11.43;5.40;;;;;;;4.39;73.45;99682.06;5041919;28;21405;-70
2021/03/31 03:54:37;;;;;;;10.75;4.68;;;;;;;4.25;74.56;99669.97;5048798;28;20116;-70
2021/03/31 03:57:03;;;;;;;10.57;4.82;;;;;;;4.29;74.02;99683.91;5051864;28;20398;-71
2021/03/31 03:59:29;;;;;;;11.02;5.40;;;;;;;4.27;74.99;99688.56;5051472;28;20033;-69
2021/03/31 04:01:55;;;;;;;12.82;4.55;;;;;;;4.14;74.14;99673.63;5048518;28;20426;-74
2021/03/31 04:04:22;;;;;;;9.30;4.93;;;;;;;4.14;73.67;99691.53;5044032;28;20151;-77
2021/03/31 04:06:48;;;;;;;9.10;4.43;;;;;;;4.04;74.32;99688.00;5047727;28;20079;-77
2021/03/31 04:09:14;;;;;;;9.18;4.97;;;;;;;4.05;74.02;99685.19;5052525;28;20488;-76
2021/03/31 04:11:42;;;;;;;7.75;4.55;;;;;;;3.91;74.42;99674.91;5051918;28;20033;-77
2021/03/31 04:14:08;;;;;;;12.15;4.40;;;;;;;4.14;74.63;99676.31;5058064;28;20044;-76
2021/03/31 04:16:35;;;;;;;12.63;4.72;;;;;;;4.15;73.93;99691.38;5060333;28;20033;-71
2021/03/31 04:19:05;;;;;;;11.38;4.90;;;;;;;3.98;74.42;99688.56;5048095;28;20025;-73
2021/03/31 04:21:33;;;;;;;8.43;4.60;;;;;;;3.97;74.25;99677.00;5062717;28;20036;-76
2021/03/31 04:24:04;;;;;;;8.93;5.32;;;;;;;3.92;74.26;99679.25;5050728;28;20017;-76
2021/03/31 04:26:32;;;;;;;10.38;4.88;;;;;;;3.98;74.68;99678.69;5071959;28;20019;-79
2021/03/31 04:28:59;;;;;;;8.75;4.72;;;;;;;4.09;74.51;99691.13;5072806;28;20024;-77
2021/03/31 04:31:27;;;;;;;9.65;4.57;;;;;;;4.10;74.44;99693.63;5068078;28;20025;-73
2021/03/31 04:33:54;;;;;;;8.07;4.63;;;;;;;4.07;74.88;99698.44;5049714;28;20032;-72
2021/03/31 04:36:19;;;;;;;12.18;4.97;;;;;;;3.91;75.13;99677.56;5049610;28;20104;-78
2021/03/31 04:38:46;;;;;;;8.70;4.82;;;;;;;3.95;74.87;99695.03;5051678;28;20068;-76
2021/03/31 04:41:11;;;;;;;12.32;5.22;;;;;;;3.80;74.79;99675.00;5052822;28;20055;-75
2021/03/31 04:43:38;;;;;;;9.57;4.53;;;;;;;3.92;75.50;99695.31;5054302;28;20028;-76
2021/03/31 04:46:05;;;;;;;10.55;4.78;;;;;;;3.93;75.52;99697.03;5042047;28;20029;-74
2021/03/31 04:48:32;;;;;;;6.85;4.43;;;;;;;3.86;74.99;99669.94;5046866;28;20021;-75
2021/03/31 04:50:57;;;;;;;12.63;4.55;;;;;;;3.94;75.11;99674.59;5054357;28;20021;-79
2021/03/31 04:53:23;;;;;;;9.57;4.93;;;;;;;4.13;74.14;99666.56;5052033;28;20039;-77
2021/03/31 04:55:49;;;;;;;11.43;5.15;;;;;;;4.24;74.13;99689.69;5053090;28;20052;-78
2021/03/31 04:58:15;;;;;;;10.60;5.53;;;;;;;4.16;74.48;99663.59;5045388;28;20100;-76
2021/03/31 05:00:40;;;;;;;9.93;5.05;;;;;;;4.41;74.16;99680.13;5055082;28;20025;-76
2021/03/31 05:03:09;;;;;;;9.82;5.22;;;;;;;4.39;73.75;99687.44;5051849;28;20017;-76
2021/03/31 05:05:34;;;;;;;8.40;4.75;;;;;;;4.57;73.10;99680.38;5053453;28;20025;-78
2021/03/31 05:08:00;;;;;;;9.05;4.40;;;;;;;4.54;72.26;99693.22;5055050;28;20075;-71
2021/03/31 05:10:26;;;;;;;11.52;5.03;;;;;;;4.57;72.81;99680.38;5048532;28;20120;-68
2021/03/31 05:12:51;;;;;;;7.30;4.35;;;;;;;4.67;72.61;99674.16;5041452;28;20132;-71
2021/03/31 05:15:17;;;;;;;10.55;4.88;;;;;;;4.71;72.19;99670.19;5053261;28;20116;-72
2021/03/31 05:17:43;;;;;;;12.40;5.70;;;;;;;4.84;72.42;99676.06;5050659;28;20095;-66
2021/03/31 05:20:09;;;;;;;11.95;5.55;;;;;;;4.88;72.07;99682.84;5055434;28;20029;-74
2021/03/31 05:22:34;;;;;;;9.82;5.20;;;;;;;5.03;71.80;99662.63;5052660;28;20028;-74
2021/03/31 05:25:00;;;;;;;12.60;6.07;;;;;;;5.13;71.31;99672.47;5055964;28;20025;-76
2021/03/31 05:27:25;;;;;;;13.02;5.55;;;;;;;5.19;71.28;99680.78;5055340;28;20029;-70
2021/03/31 05:29:51;;;;;;;15.32;5.90;;;;;;;5.24;71.37;99664.25;5055551;28;20116;-70
2021/03/31 05:32:16;;;;;;;12.07;5.57;;;;;;;5.38;70.65;99658.38;5051922;28;20064;-76
2021/03/31 05:34:42;;;;;;;11.73;5.38;;;;;;;5.98;68.88;99670.47;5055356;28;20453;-72
2021/03/31 05:37:07;;;;;;;9.38;5.30;;;;;;;7.03;65.86;99656.19;5053182;28;20029;-74
2021/03/31 05:39:32;;;;;;;12.30;5.20;;;;;;;8.62;60.72;99649.03;5048536;28;20073;-73
2021/03/31 05:41:59;;;;;;;10.57;5.25;;;;;;;9.67;58.15;99643.47;5057035;28;20025;-75
2021/03/31 05:44:25;;;;;;;8.48;4.95;;;;;;;10.74;54.68;99652.53;5055478;28;20021;-74
2021/03/31 05:46:52;;;;;;;15.00;5.88;;;;;;;11.74;52.47;99642.25;5053649;28;20044;-71
2021/03/31 05:49:18;;;;;;;10.02;5.63;;;;;;;12.14;51.19;99626.44;5053894;28;20033;-77
2021/03/31 05:51:43;;;;;;;15.00;5.50;;;;;;;11.52;51.77;99631.31;5050659;28;20124;-76
2021/03/31 05:54:09;;;;;;;10.23;5.03;;;;;;;10.76;53.99;99641.50;5054535;28;20499;-78
2021/03/31 05:56:34;;;;;;;10.65;5.32;;;;;;;10.89;53.18;99633.56;5053316;28;20482;-74
2021/03/31 05:59:07;;;;;;;7.82;4.57;;;;;;;10.36;53.57;99642.72;5046335;28;20029;-76
2021/03/31 06:01:33;;;;;;;11.77;5.75;;;;;;;9.02;56.01;99633.75;5052582;28;20012;-76
2021/03/31 06:04:00;;;;;;;10.63;5.82;;;;;;;8.66;57.67;99633.31;5044629;28;20511;-78
2021/03/31 06:06:26;;;;;;;15.55;5.15;;;;;;;9.11;56.49;99626.47;5045491;28;20032;-74
2021/03/31 06:08:52;;;;;;;12.75;5.30;;;;;;;9.69;55.33;99629.75;5053353;28;20037;-73
2021/03/31 06:11:20;;;;;;;8.82;4.95;;;;;;;10.47;53.84;99634.97;5052169;28;20044;-76
2021/03/31 06:14:00;;;;;;;10.60;4.57;;;;;;;11.74;50.88;99628.69;5046590;28;20368;-73
2021/03/31 06:16:32;;;;;;;7.07;4.32;;;;;;;13.72;46.44;99635.91;5052324;28;20082;-77
2021/03/31 06:19:20;;;;;;;11.32;4.38;;;;;;;15.24;44.64;99618.03;5051410;28;20020;-77
2021/03/31 06:22:17;;;;;;;10.07;4.80;;;;;;;16.38;41.66;99614.56;5048732;28;20025;-79
2021/03/31 06:24:48;;;;;;;7.75;4.45;;;;;;;17.09;40.97;99620.72;5054761;28;20033;-78
2021/03/31 06:27:25;;;;;;;8.80;5.07;;;;;;;17.07;40.63;99631.03;5049341;28;20478;-66
2021/03/31 06:30:05;;;;;;;8.02;4.93;;;;;;;18.80;37.99;99631.53;5051389;28;20071;-66
2021/03/31 06:32:39;;;;;;;7.35;4.47;;;;;;;19.91;36.05;99628.78;5054713;28;20025;-74
2021/03/31 06:35:06;;;;;;;10.00;5.72;;;;;;;20.70;34.75;99623.41;5054621;28;20067;-72
2021/03/31 06:37:36;;;;;;;10.15;5.93;;;;;;;20.25;34.56;99626.13;5054886;28;20017;-77
2021/03/31 06:40:07;;;;;;;9.32;5.53;;;;;;;20.09;34.89;99616.78;5050068;28;20555;-79
2021/03/31 06:42:37;;;;;;;8.27;5.53;;;;;;;20.46;34.87;99621.84;5050800;28;20028;-79
2021/03/31 06:45:20;;;;;;;12.70;6.25;;;;;;;20.46;34.86;99619.09;5068722;28;20021;-78
2021/03/31 06:47:52;;;;;;;9.95;6.22;;;;;;;20.32;34.39;99615.81;5045151;28;20021;-77
2021/03/31 06:50:18;;;;;;;15.27;6.40;;;;;;;19.62;36.03;99630.63;5051183;28;20021;-80
2021/03/31 06:52:57;;;;;;;12.52;5.93;;;;;;;18.89;36.70;99630.13;5057574;28;20418;-80
2021/03/31 06:55:24;;;;;;;14.30;5.95;;;;;;;19.59;35.88;99628.38;5047647;28;20474;-74
2021/03/31 06:58:01;;;;;;;12.48;5.65;;;;;;;18.85;36.90;99628.91;5053886;28;20036;-77
2021/03/31 07:00:29;;;;;;;10.55;5.68;;;;;;;18.88;37.04;99628.44;5053210;28;20025;-76
2021/03/31 07:02:57;;;;;;;9.75;5.65;;;;;;;18.15;38.20;99619.44;5055354;28;20096;-72
2021/03/31 07:05:23;;;;;;;11.95;5.60;;;;;;;20.63;35.12;99624.66;5051217;28;20033;-67
2021/03/31 07:08:00;;;;;;;11.73;5.82;;;;;;;20.68;34.68;99614.56;5049145;28;20036;-67
2021/03/31 07:10:25;;;;;;;11.25;6.15;;;;;;;21.75;33.27;99612.53;5040690;28;20039;-67
2021/03/31 07:12:52;;;;;;;13.07;6.30;;;;;;;20.41;35.02;99602.50;5041959;28;20025;-67
2021/03/31 07:15:21;;;;;;;9.02;5.97;;;;;;;20.36;35.44;99606.03;5041846;28;20437;-67
2021/03/31 07:17:55;;;;;;;10.93;5.85;;;;;;;19.58;37.12;99619.31;5044970;28;20031;-67
2021/03/31 07:20:26;;;;;;;10.50;6.15;;;;;;;20.21;36.22;99603.00;5050126;28;20033;-77
2021/03/31 07:22:53;;;;;;;13.50;5.35;;;;;;;22.04;34.13;99593.88;5051970;28;20109;-74
2021/03/31 07:25:19;;;;;;;12.13;5.65;;;;;;;23.27;32.51;99597.69;5052159;28;20039;-77
2021/03/31 07:27:46;;;;;;;11.07;5.28;;;;;;;22.41;33.82;99595.91;5050823;28;20029;-77
2021/03/31 07:30:16;;;;;;;11.55;5.38;;;;;;;23.11;33.19;99602.28;5051657;28;20407;-76
2021/03/31 07:32:46;;;;;;;9.02;4.75;;;;;;;23.21;32.45;99598.72;5051945;28;20421;-77
2021/03/31 07:35:12;;;;;;;12.10;5.63;;;;;;;22.56;33.21;99602.63;5035502;28;20088;-75
2021/03/31 07:37:38;;;;;;;11.20;5.97;;;;;;;21.24;35.47;99592.56;5049416;28;20115;-73
2021/03/31 07:40:07;;;;;;;16.50;5.45;;;;;;;22.09;34.98;99585.66;5047899;28;20029;-75
2021/03/31 07:42:36;;;;;;;19.75;6.05;;;;;;;22.36;34.62;99589.53;5051860;28;20080;-81
2021/03/31 07:45:03;;;;;;;13.48;6.00;;;;;;;23.62;32.48;99594.25;5048538;28;20040;-80
2021/03/31 07:47:30;;;;;;;14.45;5.90;;;;;;;23.73;32.74;99597.91;5039657;28;20071;-81
2021/03/31 07:49:56;;;;;;;13.10;6.63;;;;;;;23.47;32.85;99582.31;5052164;28;20024;-77
2021/03/31 07:52:24;;;;;;;12.70;6.22;;;;;;;23.72;32.96;99598.19;5050103;28;20352;-73
2021/03/31 07:54:55;;;;;;;13.02;6.30;;;;;;;23.98;32.69;99601.88;5048874;28;20020;-74
2021/03/31 07:57:32;;;;;;;12.38;5.95;;;;;;;25.57;30.29;99592.44;5043368;28;20048;-78
2021/03/31 07:59:57;;;;;;;12.95;5.47;;;;;;;25.30;31.17;99583.66;5041424;28;20087;-81
2021/03/31 08:02:24;;;;;;;19.15;6.38;;;;;;;24.67;31.32;99579.28;5048212;28;20029;-80
2021/03/31 08:04:49;;;;;;;10.80;6.10;;;;;;;24.34;32.13;99601.94;5043566;28;20037;-77
2021/03/31 08:07:20;;;;;;;9.95;5.47;;;;;;;25.92;30.27;99578.72;5053276;28;20394;-81
2021/03/31 08:09:46;;;;;;;11.35;6.05;;;;;;;26.92;29.37;99588.53;5043614;28;20729;-78
2021/03/31 08:12:16;;;;;;;13.27;5.78;;;;;;;27.48;28.87;99579.63;5041410;28;20045;-79
2021/03/31 08:14:44;;;;;;;14.35;5.93;;;;;;;27.46;29.28;99589.41;5055941;28;20028;-79
2021/03/31 08:17:12;;;;;;;14.45;5.65;;;;;;;28.76;27.87;99583.38;5053342;28;20024;-80
2021/03/31 08:19:50;;;;;;;10.97;5.60;;;;;;;30.18;26.22;99583.63;5052023;28;20028;-75
2021/03/31 08:22:37;;;;;;;13.63;5.30;;;;;;;30.51;25.74;99577.84;5051985;28;20025;-73
2021/03/31 08:25:23;;;;;;;12.70;6.32;;;;;;;28.61;27.98;99590.03;5040262;28;20025;-73
2021/03/31 08:28:03;;;;;;;10.05;5.40;;;;;;;28.89;28.06;99581.75;5051596;28;20025;-73
2021/03/31 08:30:29;;;;;;;13.90;6.22;;;;;;;30.27;26.84;99578.97;5040948;28;20100;-70
2021/03/31 08:32:55;;;;;;;14.18;6.47;;;;;;;30.22;26.19;99589.41;5045168;28;20104;-71
2021/03/31 08:35:22;;;;;;;11.20;6.80;;;;;;;31.53;24.96;99577.16;5036504;28;20437;-74
2021/03/31 08:37:49;;;;;;;15.02;7.07;;;;;;;32.26;23.85;99575.50;5069714;22;20117;-74
2021/03/31 08:40:15;;;;;;;12.50;6.85;;;;;;;31.16;24.76;99571.72;5081040;28;20024;-73
2021/03/31 08:42:48;;;;;;;12.20;6.85;;;;;;;30.99;24.82;99569.66;5078238;28;20113;-72
2021/03/31 08:45:24;;;;;;;12.18;6.63;;;;;;;31.10;25.32;99559.03;5081699;28;20062;-76
2021/03/31 08:47:50;;;;;;;14.88;6.90;;;;;;;30.70;25.33;99570.09;5089741;28;20115;-76
2021/03/31 08:50:24;;;;;;;12.15;7.13;;;;;;;31.93;23.88;99577.91;5058520;28;20580;-70
2021/03/31 08:52:57;;;;;;;14.38;7.43;;;;;;;32.59;23.42;99577.78;5061693;28;20033;-79
2021/03/31 08:55:29;;;;;;;10.75;6.53;;;;;;;34.59;21.54;99571.25;5062959;28;20024;-74
2021/03/31 08:57:55;;;;;;;14.95;7.85;;;;;;;34.72;20.43;99562.84;5069856;28;20025;-74
2021/03/31 09:00:20;;;;;;;10.63;7.53;;;;;;;32.88;21.42;99574.31;5062587;28;20535;-74
2021/03/31 09:02:46;;;;;;;16.27;7.93;;;;;;;32.55;21.75;99574.03;5052044;28;20107;-71
2021/03/31 09:05:12;;;;;;;13.77;8.35;;;;;;;32.48;22.17;99566.09;5055313;28;20036;-72
2021/03/31 09:07:37;;;;;;;11.55;8.18;;;;;;;33.18;21.37;99560.38;5054901;28;20036;-72
2021/03/31 09:10:03;;;;;;;11.93;8.07;;;;;;;32.57;22.00;99560.50;5052676;28;20363;-69
2021/03/31 09:12:29;;;;;;;21.05;9.57;;;;;;;31.35;23.00;99562.25;5056402;28;20359;-68
2021/03/31 09:14:57;;;;;;;19.85;8.90;;;;;;;31.16;23.46;99552.13;5064626;28;20025;-74
2021/03/31 09:17:26;;;;;;;13.23;7.95;;;;;;;32.20;22.81;99551.63;5068396;28;20029;-72
2021/03/31 09:19:56;;;;;;;13.32;8.05;;;;;;;31.48;22.37;99552.13;5068437;28;20028;-71
2021/03/31 09:22:23;;;;;;;14.75;8.18;;;;;;;31.98;21.66;99557.34;5064889;28;20059;-70
2021/03/31 09:24:51;;;;;;;16.00;8.65;;;;;;;31.26;21.88;99545.44;5058208;28;20095;-69
2021/03/31 09:27:19;;;;;;;17.47;9.17;;;;;;;30.67;23.21;99542.81;5060113;28;20028;-68
2021/03/31 09:29:46;;;;;;;14.35;8.40;;;;;;;31.40;22.57;99545.34;5063500;28;20105;-68
2021/03/31 09:32:15;;;;;;;14.45;8.77;;;;;;;30.91;23.03;99539.69;5059363;28;20099;-68
2021/03/31 09:34:42;;;;;;;15.55;8.88;;;;;;;30.22;23.47;99533.59;5061482;28;20021;-66
2021/03/31 09:37:11;;;;;;;14.93;9.07;;;;;;;29.67;23.59;99529.81;5055599;28;20363;-68
2021/03/31 09:39:44;;;;;;;14.65;8.70;;;;;;;30.06;23.57;99533.13;5054208;28;20060;-71
2021/03/31 09:42:18;;;;;;;14.88;8.88;;;;;;;31.35;21.94;99528.69;5051477;28;20500;-69
2021/03/31 09:44:43;;;;;;;15.35;8.20;;;;;;;31.00;23.08;99517.38;5054386;28;20043;-68
2021/03/31 09:47:10;;;;;;;16.63;8.70;;;;;;;32.40;21.58;99519.28;5070037;28;20493;-70
2021/03/31 09:49:36;;;;;;;18.60;8.38;;;;;;;32.38;22.56;99521.59;5065507;28;20020;-68
2021/03/31 09:52:03;;;;;;;13.60;8.35;;;;;;;32.47;21.10;99521.59;5064527;28;20566;-69
2021/03/31 09:54:29;;;;;;;12.50;7.85;;;;;;;33.89;19.86;99511.97;5062803;28;20532;-72
2021/03/31 09:56:56;;;;;;;12.68;7.75;;;;;;;33.62;19.96;99518.13;5077132;28;20021;-72
2021/03/31 09:59:21;;;;;;;13.40;7.88;;;;;;;33.84;19.25;99509.34;5059039;28;20033;-69
2021/03/31 10:01:47;;;;;;;12.02;7.85;;;;;;;33.02;20.24;99511.63;5058019;28;20027;-69
2021/03/31 10:04:14;;;;;;;12.20;7.28;;;;;;;33.16;19.80;99510.22;5068024;28;20095;-70
2021/03/31 10:06:39;;;;;;;14.70;8.13;;;;;;;33.06;19.84;99505.00;5071123;28;20025;-70
2021/03/31 10:09:15;;;;;;;11.45;7.65;;;;;;;32.93;20.39;99509.66;5066355;28;20055;-68
2021/03/31 10:11:41;;;;;;;11.73;8.02;;;;;;;32.95;19.88;99504.50;5055752;28;20064;-69
2021/03/31 10:14:19;;;;;;;15.77;8.23;;;;;;;33.54;19.86;99486.97;5071914;28;20051;-69
2021/03/31 10:16:44;;;;;;;12.57;8.35;;;;;;;33.60;19.86;99488.41;5055307;28;20033;-69
2021/03/31 10:19:10;;;;;;;11.35;8.00;;;;;;;32.43;20.43;99489.81;5064249;28;20056;-70
2021/03/31 10:21:37;;;;;;;18.27;8.48;;;;;;;31.92;20.77;99497.06;5054501;28;20033;-70
2021/03/31 10:24:04;;;;;;;13.80;7.90;;;;;;;32.93;20.45;99495.63;5059548;28;20033;-69
2021/03/31 10:26:38;;;;;;;12.10;8.30;;;;;;;32.51;20.47;99484.22;5069441;28;20052;-69
2021/03/31 10:29:21;;;;;;;14.00;8.65;;;;;;;32.13;21.09;99480.47;5075551;28;20077;-69
2021/03/31 10:31:48;;;;;;;12.73;7.75;;;;;;;31.98;21.22;99479.81;5067322;28;20032;-69
2021/03/31 10:34:15;;;;;;;14.23;8.35;;;;;;;32.18;21.30;99480.31;5059585;28;20025;-69
2021/03/31 10:48:27;;;;;;;13.52;9.07;;;;;;;34.17;19.69;99460.91;5080752;28;20081;-69
2021/03/31 10:51:11;;;;;;;12.30;8.40;;;;;;;34.81;19.80;99459.56;5073577;28;20086;-68
2021/03/31 10:53:44;;;;;;;13.05;7.55;;;;;;;34.78;19.57;99463.06;5058561;28;20363;-67
2021/03/31 10:56:10;;;;;;;13.18;8.75;;;;;;;32.06;21.14;99469.75;5055595;28;20032;-69
2021/03/31 10:58:36;;;;;;;15.35;8.23;;;;;;;33.62;20.34;99456.38;5068790;28;20089;-71
2021/03/31 11:01:02;;;;;;;18.10;8.73;;;;;;;32.06;21.60;99456.56;5069925;28;20416;-69
2021/03/31 11:03:28;;;;;;;13.93;8.63;;;;;;;31.74;22.09;99452.28;5054770;28;20494;-70
2021/03/31 11:05:54;;;;;;;18.85;8.10;;;;;;;33.42;20.78;99432.72;5050361;28;20036;-71
2021/03/31 11:08:20;;;;;;;14.23;7.85;;;;;;;33.77;20.05;99442.56;5049996;28;20425;-71
2021/03/31 11:10:46;;;;;;;14.73;8.80;;;;;;;34.59;19.97;99439.16;5051493;28;20066;-72
2021/03/31 11:13:11;;;;;;;17.15;10.50;;;;;;;34.51;19.77;99436.38;5061378;28;20024;-71
2021/03/31 11:15:38;;;;;;;16.40;9.45;;;;;;;33.69;19.73;99435.00;5065946;28;20036;-71
2021/03/31 11:18:19;;;;;;;13.60;9.13;;;;;;;32.82;19.83;99432.69;5049830;28;20031;-73
2021/03/31 11:21:04;;;;;;;17.15;9.30;;;;;;;33.30;20.12;99434.28;5050101;28;20501;-71
2021/03/31 11:26:13;;;;;;;12.35;8.10;;;;;;;34.08;18.83;99418.03;5059593;28;20078;-76
2021/03/31 11:28:39;;;;;;;16.35;8.80;;;;;;;34.16;20.11;99417.09;5055119;28;20025;-73
2021/03/31 11:31:05;;;;;;;12.02;7.85;;;;;;;33.97;19.28;99418.41;5070403;28;20062;-71
2021/03/31 11:33:31;;;;;;;10.50;7.00;;;;;;;34.88;18.97;99421.25;5057249;28;20025;-73
2021/03/31 11:35:56;;;;;;;12.32;8.43;;;;;;;34.33;19.18;99413.31;5059183;28;20055;-73
2021/03/31 11:38:23;;;;;;;12.90;7.72;;;;;;;34.94;19.10;99409.78;5064155;28;20509;-74
2021/03/31 11:40:49;;;;;;;11.52;7.45;;;;;;;35.39;17.91;99404.00;5057497;28;20082;-73
2021/03/31 11:43:16;;;;;;;14.75;8.63;;;;;;;35.70;18.05;99403.34;5051092;28;20096;-73
2021/03/31 11:45:42;;;;;;;13.02;8.68;;;;;;;35.46;18.63;99392.97;5050968;28;20025;-73
2021/03/31 11:48:07;;;;;;;12.07;9.50;;;;;;;34.60;19.44;99401.44;5054814;28;20051;-72
2021/03/31 11:50:33;;;;;;;14.43;9.50;;;;;;;35.27;19.46;99401.22;5060571;28;20032;-72
2021/03/31 11:52:58;;;;;;;11.70;7.65;;;;;;;34.56;19.53;99392.03;5070206;28;20101;-72